sensor_id;sensor_type;location;lat;lon;timestamp;temperature;humidity
30304;DHT22;17112;48.636;10.152;2023-03-14T00:01:34;11.90;67.70
30304;DHT22;17112;48.636;10.152;2023-03-14T00:04:00;11.90;67.60
30304;DHT22;17112;48.636;10.152;2023-03-14T00:06:26;11.80;67.90
30304;DHT22;17112;48.636;10.152;2023-03-14T00:08:52;11.80;68.70
30304;DHT22;17112;48.636;10.152;2023-03-14T00:11:20;11.80;69.50
30304;DHT22;17112;48.636;10.152;2023-03-14T00:13:49;11.80;68.80
30304;DHT22;17112;48.636;10.152;2023-03-14T00:16:15;11.80;69.40
30304;DHT22;17112;48.636;10.152;2023-03-14T00:18:41;11.80;69.40
30304;DHT22;17112;48.636;10.152;2023-03-14T00:21:08;11.70;68.90
30304;DHT22;17112;48.636;10.152;2023-03-14T00:23:36;11.80;69.20
30304;DHT22;17112;48.636;10.152;2023-03-14T00:26:05;11.70;69.00
30304;DHT22;17112;48.636;10.152;2023-03-14T00:28:31;11.80;69.20
30304;DHT22;17112;48.636;10.152;2023-03-14T00:30:57;11.70;69.70
30304;DHT22;17112;48.636;10.152;2023-03-14T00:33:23;11.80;69.70
30304;DHT22;17112;48.636;10.152;2023-03-14T00:35:56;11.80;70.10
30304;DHT22;17112;48.636;10.152;2023-03-14T00:38:22;11.80;70.70
30304;DHT22;17112;48.636;10.152;2023-03-14T00:40:49;11.80;69.80
30304;DHT22;17112;48.636;10.152;2023-03-14T00:43:15;11.80;69.60
30304;DHT22;17112;48.636;10.152;2023-03-14T00:45:41;11.80;70.10
30304;DHT22;17112;48.636;10.152;2023-03-14T00:48:07;11.80;69.40
30304;DHT22;17112;48.636;10.152;2023-03-14T00:50:32;11.60;69.20
30304;DHT22;17112;48.636;10.152;2023-03-14T00:52:58;11.80;69.30
30304;DHT22;17112;48.636;10.152;2023-03-14T00:55:24;11.80;69.60
30304;DHT22;17112;48.636;10.152;2023-03-14T00:57:50;11.80;69.30
30304;DHT22;17112;48.636;10.152;2023-03-14T01:00:16;11.80;69.30
30304;DHT22;17112;48.636;10.152;2023-03-14T01:02:41;11.80;69.00
30304;DHT22;17112;48.636;10.152;2023-03-14T01:05:07;11.80;69.00
30304;DHT22;17112;48.636;10.152;2023-03-14T01:07:36;11.70;68.80
30304;DHT22;17112;48.636;10.152;2023-03-14T01:10:02;11.70;69.00
30304;DHT22;17112;48.636;10.152;2023-03-14T01:12:28;11.70;68.70
30304;DHT22;17112;48.636;10.152;2023-03-14T01:14:54;11.70;68.30
30304;DHT22;17112;48.636;10.152;2023-03-14T01:17:19;11.70;67.70
30304;DHT22;17112;48.636;10.152;2023-03-14T01:19:45;11.60;67.60
30304;DHT22;17112;48.636;10.152;2023-03-14T01:22:10;11.60;67.60
30304;DHT22;17112;48.636;10.152;2023-03-14T01:24:37;11.60;67.60
30304;DHT22;17112;48.636;10.152;2023-03-14T01:27:03;11.60;67.60
30304;DHT22;17112;48.636;10.152;2023-03-14T01:29:28;11.50;67.60
30304;DHT22;17112;48.636;10.152;2023-03-14T01:31:54;11.50;67.50
30304;DHT22;17112;48.636;10.152;2023-03-14T01:34:20;11.50;67.60
30304;DHT22;17112;48.636;10.152;2023-03-14T01:36:45;11.50;67.50
30304;DHT22;17112;48.636;10.152;2023-03-14T01:39:11;11.50;67.50
30304;DHT22;17112;48.636;10.152;2023-03-14T01:41:39;11.40;67.70
30304;DHT22;17112;48.636;10.152;2023-03-14T01:44:05;11.40;67.80
30304;DHT22;17112;48.636;10.152;2023-03-14T01:52:02;11.40;68.30
30304;DHT22;17112;48.636;10.152;2023-03-14T01:54:42;11.40;67.90
30304;DHT22;17112;48.636;10.152;2023-03-14T01:57:12;11.40;68.20
30304;DHT22;17112;48.636;10.152;2023-03-14T01:59:40;11.30;68.10
30304;DHT22;17112;48.636;10.152;2023-03-14T02:02:09;11.30;68.10
30304;DHT22;17112;48.636;10.152;2023-03-14T02:04:38;11.30;68.30
30304;DHT22;17112;48.636;10.152;2023-03-14T02:07:12;11.30;68.10
30304;DHT22;17112;48.636;10.152;2023-03-14T02:09:40;11.30;68.50
30304;DHT22;17112;48.636;10.152;2023-03-14T02:12:08;11.30;69.50
30304;DHT22;17112;48.636;10.152;2023-03-14T02:14:36;11.30;68.50
30304;DHT22;17112;48.636;10.152;2023-03-14T02:17:05;11.30;68.90
30304;DHT22;17112;48.636;10.152;2023-03-14T02:22:19;11.30;69.30
30304;DHT22;17112;48.636;10.152;2023-03-14T02:25:00;11.20;68.40
30304;DHT22;17112;48.636;10.152;2023-03-14T02:27:29;11.20;69.40
30304;DHT22;17112;48.636;10.152;2023-03-14T02:30:01;11.20;68.40
30304;DHT22;17112;48.636;10.152;2023-03-14T02:32:29;11.20;68.80
30304;DHT22;17112;48.636;10.152;2023-03-14T02:34:57;11.20;68.80
30304;DHT22;17112;48.636;10.152;2023-03-14T02:37:26;11.20;68.70
30304;DHT22;17112;48.636;10.152;2023-03-14T02:39:54;11.20;68.70
30304;DHT22;17112;48.636;10.152;2023-03-14T02:42:20;11.20;68.90
30304;DHT22;17112;48.636;10.152;2023-03-14T02:44:59;11.20;69.10
30304;DHT22;17112;48.636;10.152;2023-03-14T02:47:29;11.20;69.00
30304;DHT22;17112;48.636;10.152;2023-03-14T02:50:00;11.20;68.80
30304;DHT22;17112;48.636;10.152;2023-03-14T02:52:26;11.20;68.80
30304;DHT22;17112;48.636;10.152;2023-03-14T02:54:52;11.20;68.90
30304;DHT22;17112;48.636;10.152;2023-03-14T02:57:18;11.20;69.00
30304;DHT22;17112;48.636;10.152;2023-03-14T02:59:43;11.20;68.80
30304;DHT22;17112;48.636;10.152;2023-03-14T03:02:09;11.20;68.90
30304;DHT22;17112;48.636;10.152;2023-03-14T03:04:35;11.20;69.10
30304;DHT22;17112;48.636;10.152;2023-03-14T03:07:00;11.20;69.30
30304;DHT22;17112;48.636;10.152;2023-03-14T03:09:26;11.20;69.30
30304;DHT22;17112;48.636;10.152;2023-03-14T03:11:51;11.10;69.00
30304;DHT22;17112;48.636;10.152;2023-03-14T03:14:17;11.20;68.90
30304;DHT22;17112;48.636;10.152;2023-03-14T03:16:43;11.20;69.00
30304;DHT22;17112;48.636;10.152;2023-03-14T03:19:08;11.20;69.10
30304;DHT22;17112;48.636;10.152;2023-03-14T03:21:34;11.20;69.00
30304;DHT22;17112;48.636;10.152;2023-03-14T03:24:00;11.10;69.10
30304;DHT22;17112;48.636;10.152;2023-03-14T03:26:25;11.10;69.00
30304;DHT22;17112;48.636;10.152;2023-03-14T03:28:51;11.10;69.40
30304;DHT22;17112;48.636;10.152;2023-03-14T03:31:17;11.10;68.90
30304;DHT22;17112;48.636;10.152;2023-03-14T03:33:43;11.20;69.10
30304;DHT22;17112;48.636;10.152;2023-03-14T03:36:09;11.10;69.00
30304;DHT22;17112;48.636;10.152;2023-03-14T03:38:35;11.10;69.30
30304;DHT22;17112;48.636;10.152;2023-03-14T03:41:07;11.20;69.20
30304;DHT22;17112;48.636;10.152;2023-03-14T03:43:32;11.10;69.60
30304;DHT22;17112;48.636;10.152;2023-03-14T03:46:02;11.10;69.40
30304;DHT22;17112;48.636;10.152;2023-03-14T03:48:27;11.10;69.20
30304;DHT22;17112;48.636;10.152;2023-03-14T03:50:53;11.10;69.20
30304;DHT22;17112;48.636;10.152;2023-03-14T03:53:19;11.10;69.20
30304;DHT22;17112;48.636;10.152;2023-03-14T03:55:44;11.10;69.30
30304;DHT22;17112;48.636;10.152;2023-03-14T03:58:10;11.10;69.30
30304;DHT22;17112;48.636;10.152;2023-03-14T04:00:35;11.10;69.30
30304;DHT22;17112;48.636;10.152;2023-03-14T04:03:01;11.10;69.30
30304;DHT22;17112;48.636;10.152;2023-03-14T04:05:27;11.10;69.30
30304;DHT22;17112;48.636;10.152;2023-03-14T04:07:52;11.10;69.30
30304;DHT22;17112;48.636;10.152;2023-03-14T04:10:18;11.10;69.40
30304;DHT22;17112;48.636;10.152;2023-03-14T04:12:44;11.10;69.40
30304;DHT22;17112;48.636;10.152;2023-03-14T04:15:10;11.10;69.40
30304;DHT22;17112;48.636;10.152;2023-03-14T04:17:37;11.10;69.80
30304;DHT22;17112;48.636;10.152;2023-03-14T04:20:03;11.10;69.70
30304;DHT22;17112;48.636;10.152;2023-03-14T04:22:29;11.10;69.60
30304;DHT22;17112;48.636;10.152;2023-03-14T04:24:55;11.00;69.60
30304;DHT22;17112;48.636;10.152;2023-03-14T04:27:21;11.10;69.40
30304;DHT22;17112;48.636;10.152;2023-03-14T04:29:46;11.00;69.60
30304;DHT22;17112;48.636;10.152;2023-03-14T04:32:12;11.00;69.50
30304;DHT22;17112;48.636;10.152;2023-03-14T04:34:37;11.00;69.60
30304;DHT22;17112;48.636;10.152;2023-03-14T04:37:03;11.00;70.00
30304;DHT22;17112;48.636;10.152;2023-03-14T04:39:29;11.00;70.00
30304;DHT22;17112;48.636;10.152;2023-03-14T04:41:54;10.90;69.60
30304;DHT22;17112;48.636;10.152;2023-03-14T04:44:20;10.90;70.00
30304;DHT22;17112;48.636;10.152;2023-03-14T04:46:45;10.90;69.90
30304;DHT22;17112;48.636;10.152;2023-03-14T04:49:11;10.90;69.80
30304;DHT22;17112;48.636;10.152;2023-03-14T04:51:37;10.80;69.90
30304;DHT22;17112;48.636;10.152;2023-03-14T04:54:02;10.90;70.00
30304;DHT22;17112;48.636;10.152;2023-03-14T04:56:28;10.90;69.90
30304;DHT22;17112;48.636;10.152;2023-03-14T04:58:54;10.90;70.20
30304;DHT22;17112;48.636;10.152;2023-03-14T05:01:19;10.90;70.10
30304;DHT22;17112;48.636;10.152;2023-03-14T05:03:45;10.90;70.30
30304;DHT22;17112;48.636;10.152;2023-03-14T05:06:11;10.90;70.00
30304;DHT22;17112;48.636;10.152;2023-03-14T05:08:36;10.90;70.10
30304;DHT22;17112;48.636;10.152;2023-03-14T05:11:02;10.90;70.10
30304;DHT22;17112;48.636;10.152;2023-03-14T05:13:28;10.90;70.20
30304;DHT22;17112;48.636;10.152;2023-03-14T05:15:59;10.90;70.00
30304;DHT22;17112;48.636;10.152;2023-03-14T05:18:28;10.90;70.00
30304;DHT22;17112;48.636;10.152;2023-03-14T05:20:53;10.90;70.10
30304;DHT22;17112;48.636;10.152;2023-03-14T05:23:19;10.90;70.20
30304;DHT22;17112;48.636;10.152;2023-03-14T05:25:44;10.90;70.10
30304;DHT22;17112;48.636;10.152;2023-03-14T05:28:10;10.80;70.10
30304;DHT22;17112;48.636;10.152;2023-03-14T05:30:36;10.80;70.10
30304;DHT22;17112;48.636;10.152;2023-03-14T05:33:02;10.90;70.20
30304;DHT22;17112;48.636;10.152;2023-03-14T05:35:27;10.80;70.30
30304;DHT22;17112;48.636;10.152;2023-03-14T05:37:53;10.80;70.40
30304;DHT22;17112;48.636;10.152;2023-03-14T05:40:19;10.80;70.30
30304;DHT22;17112;48.636;10.152;2023-03-14T05:42:44;10.80;70.30
30304;DHT22;17112;48.636;10.152;2023-03-14T05:45:10;10.80;70.20
30304;DHT22;17112;48.636;10.152;2023-03-14T05:47:36;10.80;70.20
30304;DHT22;17112;48.636;10.152;2023-03-14T05:50:02;10.80;70.20
30304;DHT22;17112;48.636;10.152;2023-03-14T05:52:27;10.80;70.20
30304;DHT22;17112;48.636;10.152;2023-03-14T05:54:53;10.80;70.30
30304;DHT22;17112;48.636;10.152;2023-03-14T05:57:18;10.80;70.10
30304;DHT22;17112;48.636;10.152;2023-03-14T05:59:44;10.80;70.20
30304;DHT22;17112;48.636;10.152;2023-03-14T06:02:10;10.80;70.20
30304;DHT22;17112;48.636;10.152;2023-03-14T06:04:35;10.80;70.10
30304;DHT22;17112;48.636;10.152;2023-03-14T06:07:01;10.80;70.20
30304;DHT22;17112;48.636;10.152;2023-03-14T06:09:26;10.80;70.00
30304;DHT22;17112;48.636;10.152;2023-03-14T06:11:52;10.80;70.10
30304;DHT22;17112;48.636;10.152;2023-03-14T06:14:18;10.80;70.20
30304;DHT22;17112;48.636;10.152;2023-03-14T06:16:44;10.80;69.80
30304;DHT22;17112;48.636;10.152;2023-03-14T06:19:10;10.80;70.00
30304;DHT22;17112;48.636;10.152;2023-03-14T06:21:36;10.80;70.10
30304;DHT22;17112;48.636;10.152;2023-03-14T06:24:02;10.80;70.00
30304;DHT22;17112;48.636;10.152;2023-03-14T06:26:28;10.80;70.00
30304;DHT22;17112;48.636;10.152;2023-03-14T06:28:54;10.80;70.00
30304;DHT22;17112;48.636;10.152;2023-03-14T06:31:20;10.80;70.10
30304;DHT22;17112;48.636;10.152;2023-03-14T06:33:45;10.80;70.10
30304;DHT22;17112;48.636;10.152;2023-03-14T06:36:11;10.90;70.10
30304;DHT22;17112;48.636;10.152;2023-03-14T06:38:37;10.90;69.90
30304;DHT22;17112;48.636;10.152;2023-03-14T06:41:04;10.90;69.90
30304;DHT22;17112;48.636;10.152;2023-03-14T06:43:30;10.90;69.90
30304;DHT22;17112;48.636;10.152;2023-03-14T06:45:55;10.90;70.10
30304;DHT22;17112;48.636;10.152;2023-03-14T06:48:21;10.90;70.10
30304;DHT22;17112;48.636;10.152;2023-03-14T06:50:48;11.00;70.10
30304;DHT22;17112;48.636;10.152;2023-03-14T06:53:14;11.00;70.10
30304;DHT22;17112;48.636;10.152;2023-03-14T06:55:39;11.00;70.10
30304;DHT22;17112;48.636;10.152;2023-03-14T06:58:05;11.00;70.10
30304;DHT22;17112;48.636;10.152;2023-03-14T07:00:33;11.00;70.00
30304;DHT22;17112;48.636;10.152;2023-03-14T07:02:59;11.10;70.10
30304;DHT22;17112;48.636;10.152;2023-03-14T07:05:25;11.10;70.10
30304;DHT22;17112;48.636;10.152;2023-03-14T07:07:50;11.10;70.00
30304;DHT22;17112;48.636;10.152;2023-03-14T07:10:16;11.10;70.10
30304;DHT22;17112;48.636;10.152;2023-03-14T07:12:42;11.20;70.00
30304;DHT22;17112;48.636;10.152;2023-03-14T07:15:08;11.20;69.90
30304;DHT22;17112;48.636;10.152;2023-03-14T07:17:34;11.30;69.90
30304;DHT22;17112;48.636;10.152;2023-03-14T07:19:59;11.30;69.80
30304;DHT22;17112;48.636;10.152;2023-03-14T07:22:26;11.30;69.80
30304;DHT22;17112;48.636;10.152;2023-03-14T07:24:51;11.30;69.80
30304;DHT22;17112;48.636;10.152;2023-03-14T07:27:17;11.30;69.60
30304;DHT22;17112;48.636;10.152;2023-03-14T07:29:43;11.30;69.50
30304;DHT22;17112;48.636;10.152;2023-03-14T07:32:08;11.30;69.40
30304;DHT22;17112;48.636;10.152;2023-03-14T07:34:34;11.30;69.20
30304;DHT22;17112;48.636;10.152;2023-03-14T07:37:00;11.40;69.10
30304;DHT22;17112;48.636;10.152;2023-03-14T07:39:26;11.40;69.20
30304;DHT22;17112;48.636;10.152;2023-03-14T07:41:51;11.40;69.10
30304;DHT22;17112;48.636;10.152;2023-03-14T07:44:17;11.40;69.00
30304;DHT22;17112;48.636;10.152;2023-03-14T07:46:43;11.50;69.20
30304;DHT22;17112;48.636;10.152;2023-03-14T07:49:08;11.50;69.10
30304;DHT22;17112;48.636;10.152;2023-03-14T07:51:34;11.50;69.00
30304;DHT22;17112;48.636;10.152;2023-03-14T07:54:00;11.60;69.00
30304;DHT22;17112;48.636;10.152;2023-03-14T07:56:26;11.60;68.90
30304;DHT22;17112;48.636;10.152;2023-03-14T07:58:51;11.70;68.80
30304;DHT22;17112;48.636;10.152;2023-03-14T08:01:17;11.70;68.80
30304;DHT22;17112;48.636;10.152;2023-03-14T08:03:42;11.80;68.60
30304;DHT22;17112;48.636;10.152;2023-03-14T08:06:08;11.90;68.50
30304;DHT22;17112;48.636;10.152;2023-03-14T08:08:34;11.90;68.30
30304;DHT22;17112;48.636;10.152;2023-03-14T08:11:09;12.00;68.30
30304;DHT22;17112;48.636;10.152;2023-03-14T08:13:38;12.00;68.00
30304;DHT22;17112;48.636;10.152;2023-03-14T08:16:05;12.10;67.90
30304;DHT22;17112;48.636;10.152;2023-03-14T08:18:31;12.10;67.80
30304;DHT22;17112;48.636;10.152;2023-03-14T08:20:56;12.10;67.70
30304;DHT22;17112;48.636;10.152;2023-03-14T08:23:23;12.20;67.40
30304;DHT22;17112;48.636;10.152;2023-03-14T08:25:49;12.20;67.40
30304;DHT22;17112;48.636;10.152;2023-03-14T08:28:16;12.30;67.40
30304;DHT22;17112;48.636;10.152;2023-03-14T08:30:42;12.30;67.30
30304;DHT22;17112;48.636;10.152;2023-03-14T08:33:07;12.40;67.20
30304;DHT22;17112;48.636;10.152;2023-03-14T08:35:33;12.50;67.10
30304;DHT22;17112;48.636;10.152;2023-03-14T08:37:59;12.60;66.80
30304;DHT22;17112;48.636;10.152;2023-03-14T08:40:24;12.60;66.60
30304;DHT22;17112;48.636;10.152;2023-03-14T08:42:50;12.70;66.40
30304;DHT22;17112;48.636;10.152;2023-03-14T08:45:16;12.80;66.40
30304;DHT22;17112;48.636;10.152;2023-03-14T08:47:43;12.80;66.20
30304;DHT22;17112;48.636;10.152;2023-03-14T08:50:10;12.90;66.30
30304;DHT22;17112;48.636;10.152;2023-03-14T08:52:36;13.00;66.20
30304;DHT22;17112;48.636;10.152;2023-03-14T08:55:03;13.20;66.00
30304;DHT22;17112;48.636;10.152;2023-03-14T08:57:29;13.30;65.80
30304;DHT22;17112;48.636;10.152;2023-03-14T08:59:55;13.30;65.40
30304;DHT22;17112;48.636;10.152;2023-03-14T09:02:22;13.50;65.20
30304;DHT22;17112;48.636;10.152;2023-03-14T09:04:50;13.60;65.00
30304;DHT22;17112;48.636;10.152;2023-03-14T09:07:15;13.70;64.70
30304;DHT22;17112;48.636;10.152;2023-03-14T09:09:41;13.80;65.00
30304;DHT22;17112;48.636;10.152;2023-03-14T09:12:07;13.90;64.90
30304;DHT22;17112;48.636;10.152;2023-03-14T09:14:33;14.00;64.20
30304;DHT22;17112;48.636;10.152;2023-03-14T09:16:58;14.20;64.40
30304;DHT22;17112;48.636;10.152;2023-03-14T09:19:24;14.30;64.40
30304;DHT22;17112;48.636;10.152;2023-03-14T09:21:49;14.50;64.10
30304;DHT22;17112;48.636;10.152;2023-03-14T09:24:16;14.60;63.60
30304;DHT22;17112;48.636;10.152;2023-03-14T09:26:42;14.70;63.20
30304;DHT22;17112;48.636;10.152;2023-03-14T09:29:08;14.80;63.10
30304;DHT22;17112;48.636;10.152;2023-03-14T09:31:34;15.00;62.70
30304;DHT22;17112;48.636;10.152;2023-03-14T09:34:00;15.10;61.90
30304;DHT22;17112;48.636;10.152;2023-03-14T09:36:26;15.20;61.70
30304;DHT22;17112;48.636;10.152;2023-03-14T09:38:51;15.30;61.00
30304;DHT22;17112;48.636;10.152;2023-03-14T09:41:27;15.40;60.40
30304;DHT22;17112;48.636;10.152;2023-03-14T09:44:15;15.50;59.90
30304;DHT22;17112;48.636;10.152;2023-03-14T09:46:44;15.60;58.80
30304;DHT22;17112;48.636;10.152;2023-03-14T09:49:28;15.60;58.30
30304;DHT22;17112;48.636;10.152;2023-03-14T09:51:55;15.60;57.80
30304;DHT22;17112;48.636;10.152;2023-03-14T09:57:03;15.50;57.70
30304;DHT22;17112;48.636;10.152;2023-03-14T09:59:30;15.60;58.90
30304;DHT22;17112;48.636;10.152;2023-03-14T10:02:01;15.70;59.00
30304;DHT22;17112;48.636;10.152;2023-03-14T10:04:28;15.80;59.20
30304;DHT22;17112;48.636;10.152;2023-03-14T10:06:55;16.00;58.60
30304;DHT22;17112;48.636;10.152;2023-03-14T10:09:23;16.10;58.00
30304;DHT22;17112;48.636;10.152;2023-03-14T10:11:58;16.20;57.70
30304;DHT22;17112;48.636;10.152;2023-03-14T10:14:32;16.20;56.70
30304;DHT22;17112;48.636;10.152;2023-03-14T10:17:09;16.20;56.50
30304;DHT22;17112;48.636;10.152;2023-03-14T10:19:36;16.10;56.50
30304;DHT22;17112;48.636;10.152;2023-03-14T10:22:04;16.00;57.00
30304;DHT22;17112;48.636;10.152;2023-03-14T10:24:33;16.00;56.50
30304;DHT22;17112;48.636;10.152;2023-03-14T10:27:10;16.00;56.50
30304;DHT22;17112;48.636;10.152;2023-03-14T10:29:57;15.90;56.30
30304;DHT22;17112;48.636;10.152;2023-03-14T10:32:32;15.90;56.90
30304;DHT22;17112;48.636;10.152;2023-03-14T10:37:57;15.90;57.10
30304;DHT22;17112;48.636;10.152;2023-03-14T10:40:31;15.90;57.40
30304;DHT22;17112;48.636;10.152;2023-03-14T10:43:06;16.00;57.40
30304;DHT22;17112;48.636;10.152;2023-03-14T10:45:39;16.00;56.90
30304;DHT22;17112;48.636;10.152;2023-03-14T10:48:22;16.00;56.60
30304;DHT22;17112;48.636;10.152;2023-03-14T10:51:09;16.00;54.90
30304;DHT22;17112;48.636;10.152;2023-03-14T10:53:43;16.00;54.60
30304;DHT22;17112;48.636;10.152;2023-03-14T10:56:18;16.00;54.70
30304;DHT22;17112;48.636;10.152;2023-03-14T10:58:53;15.90;54.40
30304;DHT22;17112;48.636;10.152;2023-03-14T11:02:00;15.90;53.90
30304;DHT22;17112;48.636;10.152;2023-03-14T11:15:21;15.80;54.80
30304;DHT22;17112;48.636;10.152;2023-03-14T11:17:53;15.90;54.20
30304;DHT22;17112;48.636;10.152;2023-03-14T11:20:33;15.90;54.20
30304;DHT22;17112;48.636;10.152;2023-03-14T11:25:43;16.10;54.30
30304;DHT22;17112;48.636;10.152;2023-03-14T11:30:52;16.30;53.00
30304;DHT22;17112;48.636;10.152;2023-03-14T11:33:26;16.30;53.70
30304;DHT22;17112;48.636;10.152;2023-03-14T11:35:59;16.40;53.70
30304;DHT22;17112;48.636;10.152;2023-03-14T11:41:00;16.50;53.40
30304;DHT22;17112;48.636;10.152;2023-03-14T11:43:35;16.50;52.80
30304;DHT22;17112;48.636;10.152;2023-03-14T11:51:12;16.30;53.20
30304;DHT22;17112;48.636;10.152;2023-03-14T11:54:20;16.20;53.00
30304;DHT22;17112;48.636;10.152;2023-03-14T11:56:59;16.10;52.90
30304;DHT22;17112;48.636;10.152;2023-03-14T12:10:55;15.60;54.20
30304;DHT22;17112;48.636;10.152;2023-03-14T12:13:22;15.60;54.60
30304;DHT22;17112;48.636;10.152;2023-03-14T12:15:55;15.40;54.70
30304;DHT22;17112;48.636;10.152;2023-03-14T12:18:29;15.30;55.10
30304;DHT22;17112;48.636;10.152;2023-03-14T12:21:04;15.10;55.50
30304;DHT22;17112;48.636;10.152;2023-03-14T12:23:55;15.00;56.10
30304;DHT22;17112;48.636;10.152;2023-03-14T12:26:24;14.90;56.30
30304;DHT22;17112;48.636;10.152;2023-03-14T12:44:47;13.90;59.10
30304;DHT22;17112;48.636;10.152;2023-03-14T12:49:42;13.80;59.90
30304;DHT22;17112;48.636;10.152;2023-03-14T12:52:19;13.70;59.60
30304;DHT22;17112;48.636;10.152;2023-03-14T13:00:21;13.50;60.50
30304;DHT22;17112;48.636;10.152;2023-03-14T13:02:48;13.40;61.30
30304;DHT22;17112;48.636;10.152;2023-03-14T13:05:19;13.30;61.30
30304;DHT22;17112;48.636;10.152;2023-03-14T13:10:38;13.20;62.00
30304;DHT22;17112;48.636;10.152;2023-03-14T13:13:24;13.20;62.10
30304;DHT22;17112;48.636;10.152;2023-03-14T13:15:57;13.10;62.40
30304;DHT22;17112;48.636;10.152;2023-03-14T13:18:36;13.00;62.20
30304;DHT22;17112;48.636;10.152;2023-03-14T13:21:15;13.00;62.30
30304;DHT22;17112;48.636;10.152;2023-03-14T13:24:03;13.00;62.60
30304;DHT22;17112;48.636;10.152;2023-03-14T13:26:43;12.90;62.70
30304;DHT22;17112;48.636;10.152;2023-03-14T13:29:16;12.90;62.90
30304;DHT22;17112;48.636;10.152;2023-03-14T13:31:47;12.80;63.30
30304;DHT22;17112;48.636;10.152;2023-03-14T13:34:13;12.80;63.40
30304;DHT22;17112;48.636;10.152;2023-03-14T13:36:39;12.80;63.10
30304;DHT22;17112;48.636;10.152;2023-03-14T13:39:10;12.80;63.00
30304;DHT22;17112;48.636;10.152;2023-03-14T13:41:39;12.80;63.10
30304;DHT22;17112;48.636;10.152;2023-03-14T13:44:15;12.80;62.90
30304;DHT22;17112;48.636;10.152;2023-03-14T13:46:42;12.70;62.60
30304;DHT22;17112;48.636;10.152;2023-03-14T13:49:16;12.60;62.00
30304;DHT22;17112;48.636;10.152;2023-03-14T13:51:44;12.60;62.20
30304;DHT22;17112;48.636;10.152;2023-03-14T13:54:18;12.50;61.80
30304;DHT22;17112;48.636;10.152;2023-03-14T13:56:44;12.50;61.00
30304;DHT22;17112;48.636;10.152;2023-03-14T13:59:27;12.50;61.80
30304;DHT22;17112;48.636;10.152;2023-03-14T14:01:53;12.50;60.50
30304;DHT22;17112;48.636;10.152;2023-03-14T14:04:22;12.50;60.30
30304;DHT22;17112;48.636;10.152;2023-03-14T14:06:54;12.60;60.10
30304;DHT22;17112;48.636;10.152;2023-03-14T14:09:24;12.60;59.80
30304;DHT22;17112;48.636;10.152;2023-03-14T14:12:12;12.70;59.50
30304;DHT22;17112;48.636;10.152;2023-03-14T14:14:46;12.70;57.70
30304;DHT22;17112;48.636;10.152;2023-03-14T14:17:15;12.80;57.80
30304;DHT22;17112;48.636;10.152;2023-03-14T14:19:44;12.80;55.50
30304;DHT22;17112;48.636;10.152;2023-03-14T14:22:11;12.70;54.80
30304;DHT22;17112;48.636;10.152;2023-03-14T14:24:37;12.70;54.70
30304;DHT22;17112;48.636;10.152;2023-03-14T14:29:41;12.50;53.20
30304;DHT22;17112;48.636;10.152;2023-03-14T14:34:42;12.30;51.90
30304;DHT22;17112;48.636;10.152;2023-03-14T14:37:21;12.20;52.40
30304;DHT22;17112;48.636;10.152;2023-03-14T14:39:48;12.10;52.70
30304;DHT22;17112;48.636;10.152;2023-03-14T14:42:17;12.00;52.80
30304;DHT22;17112;48.636;10.152;2023-03-14T14:44:44;11.90;53.00
30304;DHT22;17112;48.636;10.152;2023-03-14T14:47:14;11.90;52.70
30304;DHT22;17112;48.636;10.152;2023-03-14T14:49:41;11.80;52.60
30304;DHT22;17112;48.636;10.152;2023-03-14T14:52:16;11.70;52.10
30304;DHT22;17112;48.636;10.152;2023-03-14T14:54:57;11.70;52.40
30304;DHT22;17112;48.636;10.152;2023-03-14T14:57:37;11.70;52.70
30304;DHT22;17112;48.636;10.152;2023-03-14T15:00:22;11.60;52.00
30304;DHT22;17112;48.636;10.152;2023-03-14T15:03:12;11.60;51.90
30304;DHT22;17112;48.636;10.152;2023-03-14T15:05:38;11.60;49.80
30304;DHT22;17112;48.636;10.152;2023-03-14T15:08:11;11.80;50.90
30304;DHT22;17112;48.636;10.152;2023-03-14T15:10:37;11.40;51.50
30304;DHT22;17112;48.636;10.152;2023-03-14T15:13:03;11.40;51.40
30304;DHT22;17112;48.636;10.152;2023-03-14T15:15:29;11.30;51.40
30304;DHT22;17112;48.636;10.152;2023-03-14T15:17:54;11.30;51.30
30304;DHT22;17112;48.636;10.152;2023-03-14T15:20:20;11.30;49.90
30304;DHT22;17112;48.636;10.152;2023-03-14T15:22:49;11.20;49.60
30304;DHT22;17112;48.636;10.152;2023-03-14T15:25:15;11.20;50.00
30304;DHT22;17112;48.636;10.152;2023-03-14T15:27:41;11.20;50.80
30304;DHT22;17112;48.636;10.152;2023-03-14T15:30:15;11.20;49.50
30304;DHT22;17112;48.636;10.152;2023-03-14T15:32:41;11.20;50.10
30304;DHT22;17112;48.636;10.152;2023-03-14T15:35:07;11.20;50.90
30304;DHT22;17112;48.636;10.152;2023-03-14T15:37:33;11.30;50.10
30304;DHT22;17112;48.636;10.152;2023-03-14T15:39:59;11.30;50.80
30304;DHT22;17112;48.636;10.152;2023-03-14T15:42:25;11.40;50.60
30304;DHT22;17112;48.636;10.152;2023-03-14T15:44:50;11.50;49.00
30304;DHT22;17112;48.636;10.152;2023-03-14T15:47:16;11.50;49.50
30304;DHT22;17112;48.636;10.152;2023-03-14T15:49:42;11.40;48.30
30304;DHT22;17112;48.636;10.152;2023-03-14T15:52:08;11.40;49.00
30304;DHT22;17112;48.636;10.152;2023-03-14T15:54:34;11.30;48.80
30304;DHT22;17112;48.636;10.152;2023-03-14T15:57:00;11.30;47.80
30304;DHT22;17112;48.636;10.152;2023-03-14T15:59:26;11.20;48.80
30304;DHT22;17112;48.636;10.152;2023-03-14T16:01:52;11.10;48.40
30304;DHT22;17112;48.636;10.152;2023-03-14T16:04:18;11.00;48.30
30304;DHT22;17112;48.636;10.152;2023-03-14T16:06:44;10.90;48.90
30304;DHT22;17112;48.636;10.152;2023-03-14T16:09:13;10.80;48.30
30304;DHT22;17112;48.636;10.152;2023-03-14T16:11:39;10.80;47.70
30304;DHT22;17112;48.636;10.152;2023-03-14T16:14:05;10.70;49.10
30304;DHT22;17112;48.636;10.152;2023-03-14T16:16:30;10.70;49.20
30304;DHT22;17112;48.636;10.152;2023-03-14T16:18:56;10.80;49.50
30304;DHT22;17112;48.636;10.152;2023-03-14T16:21:22;10.90;49.80
30304;DHT22;17112;48.636;10.152;2023-03-14T16:23:48;11.00;50.10
30304;DHT22;17112;48.636;10.152;2023-03-14T16:26:18;11.10;49.10
30304;DHT22;17112;48.636;10.152;2023-03-14T16:28:45;11.10;49.10
30304;DHT22;17112;48.636;10.152;2023-03-14T16:31:14;11.10;47.90
30304;DHT22;17112;48.636;10.152;2023-03-14T16:33:41;11.00;48.40
30304;DHT22;17112;48.636;10.152;2023-03-14T16:36:09;11.00;48.70
30304;DHT22;17112;48.636;10.152;2023-03-14T16:38:37;11.00;49.10
30304;DHT22;17112;48.636;10.152;2023-03-14T16:41:08;10.90;48.40
30304;DHT22;17112;48.636;10.152;2023-03-14T16:43:34;10.90;47.20